createdAt,value
2023-09-21T00:00:34.141Z,98590.09
2023-09-21T00:03:25.730Z,98585.09
2023-09-21T00:06:17.550Z,98581.44
2023-09-21T00:09:10.281Z,98582.59
2023-09-21T00:12:00.609Z,98571.13
2023-09-21T00:14:50.921Z,98567.19
2023-09-21T00:17:43.893Z,98561.84
2023-09-21T00:20:37.643Z,98556.81
2023-09-21T00:23:29.365Z,98562.00
2023-09-21T00:26:19.947Z,98560.41
2023-09-21T00:29:12.188Z,98552.00
2023-09-21T00:32:02.538Z,98540.94
2023-09-21T00:34:55.598Z,98548.22
2023-09-21T00:37:47.809Z,98537.75
2023-09-21T00:40:40.246Z,98523.94
2023-09-21T00:43:31.223Z,98525.19
2023-09-21T00:46:24.006Z,98522.97
2023-09-21T00:49:18.508Z,98525.31
2023-09-21T00:52:13.485Z,98510.56
2023-09-21T00:55:04.145Z,98508.69
2023-09-21T00:57:56.636Z,98497.09
2023-09-21T01:00:49.019Z,98497.41
2023-09-21T01:03:39.892Z,98489.41
2023-09-21T01:06:32.152Z,98499.09
2023-09-21T01:09:25.136Z,98505.91
2023-09-21T01:12:18.254Z,98506.41
2023-09-21T01:15:12.162Z,98499.59
2023-09-21T01:18:02.601Z,98501.47
2023-09-21T01:20:52.975Z,98500.25
2023-09-21T01:23:48.141Z,98497.22
2023-09-21T01:26:38.540Z,98483.22
2023-09-21T01:29:31.273Z,98494.06
2023-09-21T01:32:24.561Z,98488.22
2023-09-21T01:35:17.354Z,98484.75
2023-09-21T01:38:09.104Z,98487.34
2023-09-21T01:41:02.571Z,98482.41
2023-09-21T01:43:52.862Z,98488.34
2023-09-21T01:46:46.648Z,98482.13
2023-09-21T01:49:36.887Z,98484.22
2023-09-21T01:52:28.748Z,98488.72
2023-09-21T01:55:19.569Z,98483.53
2023-09-21T01:58:13.163Z,98483.00
2023-09-21T02:01:05.143Z,98483.75
2023-09-21T02:03:57.370Z,98481.94
2023-09-21T02:06:47.706Z,98480.59
2023-09-21T02:09:39.111Z,98470.50
2023-09-21T02:12:29.371Z,98455.88
2023-09-21T02:15:22.472Z,98452.72
2023-09-21T02:18:13.299Z,98453.97
2023-09-21T02:21:10.114Z,98441.75
2023-09-21T02:24:01.654Z,98442.50
2023-09-21T02:26:53.686Z,98441.06
2023-09-21T02:29:44.226Z,98438.13
2023-09-21T02:32:37.382Z,98437.44
2023-09-21T02:35:31.157Z,98440.19
2023-09-21T02:38:22.151Z,98440.94
2023-09-21T02:41:12.579Z,98430.69
2023-09-21T02:44:02.963Z,98436.19
2023-09-21T02:46:53.885Z,98435.22
2023-09-21T02:49:46.772Z,98425.69
2023-09-21T02:52:37.560Z,98427.47
2023-09-21T02:55:30.989Z,98422.16
2023-09-21T02:58:21.421Z,98423.72
2023-09-21T03:01:17.361Z,98424.22
2023-09-21T03:04:08.324Z,98408.88
2023-09-21T03:07:05.386Z,98413.88
2023-09-21T03:09:55.667Z,98411.38
2023-09-21T03:12:49.317Z,98414.78
2023-09-21T03:15:45.293Z,98410.28
2023-09-21T03:18:36.010Z,98387.75
2023-09-21T03:21:26.594Z,98409.59
2023-09-21T03:24:19.795Z,98404.84
2023-09-21T03:27:11.945Z,98395.72
2023-09-21T03:30:02.564Z,98381.75
2023-09-21T03:32:53.154Z,98384.59
2023-09-21T03:35:43.607Z,98389.19
2023-09-21T03:38:33.902Z,98385.53
2023-09-21T03:41:28.372Z,98389.47
2023-09-21T03:44:19.073Z,98385.13
2023-09-21T03:47:12.599Z,98375.44
2023-09-21T03:50:03.248Z,98369.59
2023-09-21T03:52:54.307Z,98374.06
2023-09-21T03:55:47.858Z,98371.09
2023-09-21T03:58:41.112Z,98362.00
2023-09-21T04:01:31.660Z,98365.56
2023-09-21T04:04:22.324Z,98362.44
2023-09-21T04:07:14.067Z,98354.03
2023-09-21T04:10:04.912Z,98351.66
2023-09-21T04:12:56.794Z,98350.53
2023-09-21T04:15:49.816Z,98352.59
2023-09-21T04:18:40.262Z,98349.81
2023-09-21T04:21:30.749Z,98343.28
2023-09-21T04:24:21.427Z,98346.25
2023-09-21T04:27:12.860Z,98344.59
2023-09-21T04:30:03.443Z,98349.78
2023-09-21T04:32:58.737Z,98347.09
2023-09-21T04:35:50.232Z,98345.22
2023-09-21T04:38:41.140Z,98356.53
2023-09-21T04:41:31.944Z,98346.00
2023-09-21T04:44:23.693Z,98352.00
2023-09-21T04:47:14.098Z,98352.09
2023-09-21T04:50:10.192Z,98352.53
2023-09-21T04:53:01.205Z,98355.34
2023-09-21T04:55:51.492Z,98358.78
2023-09-21T04:58:42.000Z,98354.09
2023-09-21T05:01:32.585Z,98369.19
2023-09-21T05:04:23.031Z,98364.31
2023-09-21T05:07:15.940Z,98360.88
2023-09-21T05:10:06.961Z,98346.38
2023-09-21T05:12:58.938Z,98336.63
2023-09-21T05:15:49.463Z,98356.38
2023-09-21T05:18:39.848Z,98355.06
2023-09-21T05:21:30.270Z,98357.97
2023-09-21T05:24:23.146Z,98349.72
2023-09-21T05:27:14.303Z,98343.53
2023-09-21T05:30:06.306Z,98333.78
2023-09-21T05:32:58.092Z,98318.34
2023-09-21T05:35:56.935Z,98308.31
2023-09-21T05:38:47.323Z,98303.00
2023-09-21T05:41:42.658Z,98292.44
2023-09-21T05:44:32.906Z,98289.72
2023-09-21T05:47:23.353Z,98290.47
2023-09-21T05:50:15.077Z,98286.00
2023-09-21T05:53:05.358Z,98282.22
2023-09-21T05:55:55.621Z,98285.97
2023-09-21T05:58:48.468Z,98287.34
2023-09-21T06:01:38.720Z,98288.38
2023-09-21T06:04:29.279Z,98287.47
2023-09-21T06:07:19.629Z,98280.66
2023-09-21T06:10:10.635Z,98278.72
2023-09-21T06:13:00.947Z,98272.25
2023-09-21T06:15:54.117Z,98271.66
2023-09-21T06:18:44.852Z,98271.19
2023-09-21T06:21:37.496Z,98267.59
2023-09-21T06:24:29.430Z,98274.06
2023-09-21T06:27:20.263Z,98272.91
2023-09-21T06:30:13.537Z,98271.44
2023-09-21T06:33:07.105Z,98263.84
2023-09-21T06:35:57.346Z,98252.47
2023-09-21T06:38:48.232Z,98256.38
2023-09-21T06:41:38.992Z,98264.13
2023-09-21T06:44:30.683Z,98250.78
2023-09-21T06:47:22.611Z,98255.81
2023-09-21T06:50:15.521Z,98257.84
2023-09-21T06:53:05.905Z,98248.06
2023-09-21T06:55:56.458Z,98253.09
2023-09-21T06:58:46.689Z,98252.72
2023-09-21T07:01:37.079Z,98260.25
2023-09-21T07:04:29.508Z,98268.72
2023-09-21T07:07:22.636Z,98262.88
2023-09-21T07:10:15.994Z,98270.28
2023-09-21T07:13:06.945Z,98273.78
2023-09-21T07:16:00.233Z,98272.41
2023-09-21T07:18:51.229Z,98273.00
2023-09-21T07:21:41.697Z,98273.72
2023-09-21T07:24:34.950Z,98266.97
2023-09-21T07:27:25.943Z,98266.09
2023-09-21T07:30:17.986Z,98256.41
2023-09-21T07:33:09.605Z,98262.72
2023-09-21T07:36:00.057Z,98271.50
2023-09-21T07:38:50.365Z,98268.84
2023-09-21T07:41:43.723Z,98253.44
2023-09-21T07:44:34.021Z,98256.75
2023-09-21T07:47:24.567Z,98260.88
2023-09-21T07:50:14.849Z,98245.16
2023-09-21T07:53:05.628Z,98252.22
2023-09-21T07:56:03.148Z,98245.97
2023-09-21T07:58:56.032Z,98249.06
2023-09-21T08:01:47.941Z,98256.50
2023-09-21T08:04:38.430Z,98251.34
2023-09-21T08:07:28.926Z,98236.31
2023-09-21T08:10:19.435Z,98242.69
2023-09-21T08:13:11.754Z,98234.66
2023-09-21T08:16:05.327Z,98235.03
2023-09-21T08:18:55.682Z,98231.94
2023-09-21T08:21:46.188Z,98227.50
2023-09-21T08:24:37.472Z,98240.91
2023-09-21T08:27:30.743Z,98241.16
2023-09-21T08:30:21.302Z,98240.03
2023-09-21T08:33:14.203Z,98229.38
2023-09-21T08:36:04.715Z,98227.66
2023-09-21T08:38:55.309Z,98219.75
2023-09-21T08:41:52.262Z,98215.97
2023-09-21T08:44:44.937Z,98208.59
2023-09-21T08:47:36.145Z,98213.47
2023-09-21T08:50:30.972Z,98215.75
2023-09-21T08:53:24.335Z,98208.19
2023-09-21T08:56:15.602Z,98203.09
2023-09-21T08:59:07.585Z,98207.09
2023-09-21T09:01:58.175Z,98206.50
2023-09-21T09:04:49.998Z,98195.09
2023-09-21T09:07:43.912Z,98197.34
2023-09-21T09:10:34.505Z,98199.41
2023-09-21T09:13:25.076Z,98195.34
2023-09-21T09:16:17.545Z,98190.94
2023-09-21T09:19:10.548Z,98189.19
2023-09-21T09:22:01.397Z,98197.66
2023-09-21T09:24:54.729Z,98185.06
2023-09-21T09:27:46.443Z,98188.19
2023-09-21T09:30:37.196Z,98192.47
2023-09-21T09:33:27.589Z,98195.91
2023-09-21T09:36:18.088Z,98194.31
2023-09-21T09:39:10.106Z,98189.16
2023-09-21T09:42:05.344Z,98186.00
2023-09-21T09:44:59.480Z,98194.81
2023-09-21T09:47:56.678Z,98181.63
2023-09-21T09:50:56.455Z,98191.06
2023-09-21T09:53:49.247Z,98177.03
2023-09-21T09:56:43.053Z,98173.75
2023-09-21T09:59:37.016Z,98173.59
2023-09-21T10:02:29.396Z,98168.34
2023-09-21T10:05:23.721Z,98170.06
2023-09-21T10:08:14.255Z,98171.41
2023-09-21T10:11:06.486Z,98170.91
2023-09-21T10:13:57.880Z,98170.78
2023-09-21T10:16:58.510Z,98164.56
2023-09-21T10:19:51.426Z,98158.69
2023-09-21T10:22:44.339Z,98164.00
2023-09-21T10:25:42.901Z,98151.66
2023-09-21T10:28:41.473Z,98146.53
2023-09-21T10:31:31.818Z,98143.84
2023-09-21T10:34:25.155Z,98152.03
2023-09-21T10:37:16.859Z,98151.91
2023-09-21T10:40:09.928Z,98152.81
2023-09-21T10:43:00.325Z,98147.47
2023-09-21T10:46:00.619Z,98148.44
2023-09-21T10:48:52.540Z,98149.50
2023-09-21T10:51:45.420Z,98147.22
2023-09-21T10:54:35.817Z,98146.69
2023-09-21T10:57:27.935Z,98142.53
2023-09-21T11:00:23.671Z,98137.34
2023-09-21T11:03:17.354Z,98129.50
2023-09-21T11:06:09.557Z,98135.38
2023-09-21T11:09:02.639Z,98137.38
2023-09-21T11:11:52.959Z,98136.34
2023-09-21T11:14:46.873Z,98143.19
2023-09-21T11:17:37.730Z,98140.81
2023-09-21T11:20:28.509Z,98137.03
2023-09-21T11:23:21.419Z,98133.78
2023-09-21T11:26:16.369Z,98130.91
2023-09-21T11:29:08.975Z,98128.97
2023-09-21T11:31:59.250Z,98116.69
2023-09-21T11:34:49.999Z,98113.56
2023-09-21T11:37:40.392Z,98106.00
2023-09-21T11:40:31.014Z,98104.81
2023-09-21T11:43:25.054Z,98103.22
2023-09-21T11:46:15.475Z,98115.66
2023-09-21T11:49:06.668Z,98112.44
2023-09-21T11:51:59.173Z,98104.03
2023-09-21T11:54:49.691Z,98105.50
2023-09-21T11:57:43.601Z,98106.16
2023-09-21T12:00:49.987Z,98109.44
2023-09-21T12:03:42.529Z,98101.44
2023-09-21T12:06:33.919Z,98107.00
2023-09-21T12:09:24.206Z,98100.84
2023-09-21T12:12:16.000Z,98109.16
2023-09-21T12:15:06.962Z,98112.00
2023-09-21T12:17:59.897Z,98115.00
2023-09-21T12:20:51.388Z,98111.19
2023-09-21T12:23:41.876Z,98109.16
2023-09-21T12:26:32.397Z,98105.66
2023-09-21T12:29:24.142Z,98106.38
2023-09-21T12:32:14.415Z,98104.78
2023-09-21T12:35:09.340Z,98097.38
2023-09-21T12:37:59.667Z,98102.53
2023-09-21T12:40:52.238Z,98100.25
2023-09-21T12:43:44.587Z,98090.00
2023-09-21T12:46:35.015Z,98103.06
2023-09-21T12:49:25.329Z,98090.91
2023-09-21T12:52:18.223Z,98090.28
2023-09-21T12:55:10.060Z,98091.16
2023-09-21T12:58:01.331Z,98080.09
2023-09-21T13:00:54.135Z,98086.00
2023-09-21T13:03:44.694Z,98082.97
2023-09-21T13:06:35.892Z,98081.56
2023-09-21T13:09:45.645Z,98082.69
2023-09-21T13:12:40.888Z,98080.38
2023-09-21T13:15:31.820Z,98073.69
2023-09-21T13:18:24.442Z,98066.47
2023-09-21T13:21:17.384Z,98063.25
2023-09-21T13:24:08.719Z,98064.13
2023-09-21T13:27:01.648Z,98050.00
2023-09-21T13:29:51.958Z,98051.53
2023-09-21T13:32:42.250Z,98060.47
2023-09-21T13:35:35.099Z,98046.13
2023-09-21T13:38:27.081Z,98045.50
2023-09-21T13:41:17.633Z,98047.09
2023-09-21T13:44:12.241Z,98055.47
2023-09-21T13:47:02.673Z,98061.25
2023-09-21T13:49:53.325Z,98066.94
2023-09-21T13:52:43.817Z,98052.09
2023-09-21T13:55:34.070Z,98042.13
2023-09-21T13:58:24.361Z,98024.94
2023-09-21T14:01:21.072Z,98033.06
2023-09-21T14:04:11.470Z,98034.03
2023-09-21T14:07:01.882Z,98021.31
2023-09-21T14:09:52.137Z,98020.66
2023-09-21T14:12:42.607Z,98024.28
2023-09-21T14:15:32.923Z,98022.00
2023-09-21T14:18:25.769Z,98027.22
2023-09-21T14:21:16.056Z,98020.31
2023-09-21T14:24:06.925Z,98019.16
2023-09-21T14:26:57.246Z,98014.81
2023-09-21T14:29:47.492Z,98008.28
2023-09-21T14:32:38.272Z,97988.91
2023-09-21T14:35:31.388Z,97985.94
2023-09-21T14:38:22.233Z,97982.00
2023-09-21T14:41:12.561Z,97973.50
2023-09-21T14:44:03.032Z,97976.56
2023-09-21T14:46:53.335Z,97961.91
2023-09-21T14:49:43.870Z,97956.78
2023-09-21T14:52:36.880Z,97947.94
2023-09-21T14:55:27.276Z,97947.03
2023-09-21T14:58:17.524Z,97946.03
2023-09-21T15:01:07.964Z,97950.84
2023-09-21T15:03:58.438Z,97944.94
2023-09-21T15:06:51.014Z,97934.22
2023-09-21T15:09:46.204Z,97933.91
2023-09-21T15:12:37.149Z,97934.66
2023-09-21T15:15:27.606Z,97927.25
2023-09-21T15:21:10.101Z,97912.78
2023-09-21T15:24:02.138Z,97910.59
2023-09-21T15:26:57.959Z,97908.72
2023-09-21T15:29:51.020Z,97907.16
2023-09-21T15:32:41.386Z,97899.81
2023-09-21T15:35:31.874Z,97892.63
2023-09-21T15:38:22.402Z,97889.53
2023-09-21T15:41:14.749Z,97882.69
2023-09-21T15:44:08.456Z,97870.78
2023-09-21T15:46:59.900Z,97868.78
2023-09-21T15:49:50.592Z,97873.56
2023-09-21T15:52:40.892Z,97874.94
2023-09-21T15:55:31.557Z,97867.78
2023-09-21T15:58:22.492Z,97865.47
2023-09-21T16:01:15.759Z,97854.53
2023-09-21T16:04:08.744Z,97865.19
2023-09-21T16:07:00.087Z,97854.63
2023-09-21T16:09:50.475Z,97846.22
2023-09-21T16:12:40.902Z,97843.59
2023-09-21T16:15:31.480Z,97836.91
2023-09-21T16:18:24.509Z,97825.69
2023-09-21T16:21:15.331Z,97828.22
2023-09-21T16:24:06.161Z,97837.78
2023-09-21T16:27:00.065Z,97823.91
2023-09-21T16:29:50.967Z,97820.00
2023-09-21T16:32:41.263Z,97827.56
2023-09-21T16:35:37.385Z,97821.56
2023-09-21T16:38:27.623Z,97827.94
2023-09-21T16:41:18.564Z,97823.66
2023-09-21T16:44:09.253Z,97826.66
2023-09-21T16:46:59.596Z,97816.25
2023-09-21T16:49:50.521Z,97821.94
2023-09-21T16:52:43.476Z,97817.91
2023-09-21T16:55:34.821Z,97810.47
2023-09-21T16:58:25.132Z,97813.78
2023-09-21T17:01:16.037Z,97812.03
2023-09-21T17:04:07.313Z,97814.88
2023-09-21T17:06:58.257Z,97806.59
2023-09-21T17:09:51.263Z,97806.34
2023-09-21T17:12:42.168Z,97796.03
2023-09-21T17:15:33.329Z,97798.59
2023-09-21T17:18:25.275Z,97807.13
2023-09-21T17:21:16.657Z,97808.66
2023-09-21T17:24:07.619Z,97793.22
2023-09-21T17:27:00.580Z,97799.16
2023-09-21T17:29:51.774Z,97795.44
2023-09-21T17:32:42.764Z,97794.66
2023-09-21T17:35:33.701Z,97795.63
2023-09-21T17:38:24.090Z,97783.09
2023-09-21T17:41:14.468Z,97787.31
2023-09-21T17:44:09.102Z,97786.91
2023-09-21T17:47:00.473Z,97780.41
2023-09-21T17:49:50.824Z,97779.75
2023-09-21T17:52:41.855Z,97779.34
2023-09-21T17:55:32.227Z,97777.75
2023-09-21T17:58:22.650Z,97769.38
2023-09-21T18:01:15.639Z,97789.59
2023-09-21T18:04:06.713Z,97784.59
2023-09-21T18:06:57.806Z,97780.88
2023-09-21T18:09:48.120Z,97779.75
2023-09-21T18:12:38.514Z,97782.66
2023-09-21T18:15:29.153Z,97791.03
2023-09-21T18:18:22.670Z,97774.75
2023-09-21T18:21:13.777Z,97761.56
2023-09-21T18:24:04.167Z,97764.53
2023-09-21T18:26:55.439Z,97766.38
2023-09-21T18:29:45.753Z,97761.44
2023-09-21T18:32:36.097Z,97755.81
2023-09-21T18:35:29.724Z,97765.16
2023-09-21T18:38:20.594Z,97763.50
2023-09-21T18:41:11.016Z,97752.31
2023-09-21T18:44:02.150Z,97755.13
2023-09-21T18:46:52.629Z,97746.19
2023-09-21T18:49:43.457Z,97732.59
2023-09-21T18:52:37.322Z,97740.25
2023-09-21T18:55:27.600Z,97741.84
2023-09-21T18:58:17.860Z,97744.78
2023-09-21T19:01:13.272Z,97741.84
2023-09-21T19:04:03.677Z,97749.19
2023-09-21T19:06:54.503Z,97751.38
2023-09-21T19:09:47.438Z,97746.25
2023-09-21T19:12:38.320Z,97744.25
2023-09-21T19:15:28.586Z,97737.84
2023-09-21T19:18:19.390Z,97721.25
2023-09-21T19:21:11.079Z,97719.34
2023-09-21T19:24:02.250Z,97704.94
2023-09-21T19:26:55.906Z,97706.13
2023-09-21T19:29:46.248Z,97713.09
2023-09-21T19:32:37.613Z,97703.47
2023-09-21T19:35:28.021Z,97709.75
2023-09-21T19:38:18.262Z,97702.38
2023-09-21T19:41:08.631Z,97703.50
2023-09-21T19:44:01.695Z,97706.69
2023-09-21T19:46:52.507Z,97712.31
2023-09-21T19:49:43.444Z,97706.88
2023-09-21T19:52:34.012Z,97698.06
2023-09-21T19:55:24.264Z,97687.25
2023-09-21T19:58:15.680Z,97681.44
2023-09-21T20:01:09.809Z,97673.69
2023-09-21T20:04:00.727Z,97668.22
2023-09-21T20:06:51.688Z,97662.59
2023-09-21T20:09:42.984Z,97660.22
2023-09-21T20:12:34.184Z,97652.72
2023-09-21T20:15:24.513Z,97648.19
2023-09-21T20:18:17.379Z,97634.94
2023-09-21T20:21:08.451Z,97617.88
2023-09-21T20:23:58.723Z,97618.59
2023-09-21T20:26:49.035Z,97611.19
2023-09-21T20:29:40.006Z,97608.72
2023-09-21T20:32:31.027Z,97606.19
2023-09-21T20:35:25.235Z,97608.00
2023-09-21T20:38:15.543Z,97609.19
2023-09-21T20:41:06.472Z,97602.66
2023-09-21T20:43:56.695Z,97610.84
2023-09-21T20:46:46.942Z,97610.31
2023-09-21T20:49:37.281Z,97608.31
2023-09-21T20:52:30.164Z,97607.47
2023-09-21T20:55:20.400Z,97616.41
2023-09-21T20:58:10.651Z,97617.91
2023-09-21T21:01:01.101Z,97626.50
2023-09-21T21:03:53.493Z,97602.66
2023-09-21T21:06:44.036Z,97601.97
2023-09-21T21:09:37.558Z,97605.06
2023-09-21T21:12:27.858Z,97621.94
2023-09-21T21:15:18.110Z,97619.59
2023-09-21T21:18:08.641Z,97607.19
2023-09-21T21:20:58.993Z,97599.38
2023-09-21T21:23:49.195Z,97601.56
2023-09-21T21:26:42.054Z,97611.56
2023-09-21T21:29:32.451Z,97607.13
2023-09-21T21:32:23.858Z,97606.06
2023-09-21T21:35:17.422Z,97613.63
2023-09-21T21:38:07.727Z,97612.84
2023-09-21T21:40:58.235Z,97609.50
2023-09-21T21:43:51.120Z,97613.38
2023-09-21T21:46:41.358Z,97638.25
2023-09-21T21:49:32.267Z,97630.53
2023-09-21T21:52:22.747Z,97643.91
2023-09-21T21:55:13.259Z,97644.88
2023-09-21T21:58:03.510Z,97666.56
2023-09-21T22:00:57.110Z,97679.97
2023-09-21T22:03:47.818Z,97683.72
2023-09-21T22:06:38.389Z,97697.75
2023-09-21T22:09:28.723Z,97693.47
2023-09-21T22:12:19.662Z,97725.03
2023-09-21T22:15:11.493Z,97751.19
2023-09-21T22:18:04.417Z,97756.88
2023-09-21T22:20:54.691Z,97752.47
2023-09-21T22:23:45.256Z,97748.59
2023-09-21T22:26:36.581Z,97779.88
2023-09-21T22:29:26.948Z,97805.75
2023-09-21T22:32:17.199Z,97833.81
2023-09-21T22:35:11.764Z,97871.91
2023-09-21T22:38:13.984Z,97890.03
2023-09-21T22:41:05.421Z,97874.63
2023-09-21T22:43:55.784Z,97867.25
2023-09-21T22:46:49.340Z,97867.94
2023-09-21T22:49:41.064Z,97850.94
2023-09-21T22:52:35.150Z,97855.88
2023-09-21T22:55:26.268Z,97859.47
2023-09-21T22:58:16.921Z,97868.78
2023-09-21T23:01:07.500Z,97870.22
2023-09-21T23:03:58.101Z,97866.56
2023-09-21T23:06:48.455Z,97867.09
2023-09-21T23:09:41.380Z,97873.63
2023-09-21T23:12:35.294Z,97866.38
2023-09-21T23:15:26.325Z,97871.84
2023-09-21T23:18:17.874Z,97895.66
2023-09-21T23:21:10.238Z,97906.78
2023-09-21T23:24:00.783Z,97924.50
2023-09-21T23:26:54.919Z,97917.28
2023-09-21T23:29:48.586Z,97905.47
2023-09-21T23:32:40.068Z,97911.09
2023-09-21T23:35:30.409Z,97914.50
2023-09-21T23:38:20.946Z,97892.16
2023-09-21T23:41:13.003Z,97890.72
2023-09-21T23:44:05.934Z,97898.75
2023-09-21T23:46:56.304Z,97886.53
2023-09-21T23:49:47.231Z,97886.44
2023-09-21T23:52:37.825Z,97908.56
2023-09-21T23:55:28.091Z,97911.25
2023-09-21T23:58:18.433Z,97913.50
